Blackpool, United Kingdom

12:06 PM BST on April 23, 2017 (GMT +0100)
Blackpool | | Change Station

Elev 33 ft 53.77 °N, 3.03 °W | Updated 16 minutes ago

Partly Cloudy
Partly Cloudy
50 °F
Feels Like 50 °F
N
13
Wind Variable Wind from West

Today
High -- | Low -- °F
--% Chance of Precip.
Yesterday
High -- | Low -- °F
Precip. -- in
Pressure 30.33 in
Visibility 6.2 miles
Clouds Few 2500 ft
Dew Point 39 °F
Humidity 66%
Rainfall 0.00 in
Snow Depth Not available.
5:53 AM 8:28 PM
Waning Crescent, 12% visible
METAR EGNH 231050Z 28011KT 9999 FEW025 10/04 Q1027
Pressure 30.33 in
Visibility 6.2 miles
Clouds Few 2500 ft
Dew Point 39 °F
Humidity 66%
Rainfall 0.00 in
Snow Depth Not available.
5:53 AM 8:28 PM
Waning Crescent, 12% visible
METAR EGNH 231050Z 28011KT 9999 FEW025 10/04 Q1027

Get Severe Weather Alerts

Thanks for signing up!

Be on the lookout for a verification email in your inbox.

You'll start receiving the daily forecast at 8 AM.

×

10-Day Weather Forecast

×

Almanac

Astronomy

Apr. 23, 2017 Rise Set
Actual Time
Civil Twilight
Nautical Twilight
Astronomical Twilight
Moon
Length of Visible Light
Length of Day
Tomorrow will be .
, % of the Moon is Illuminated

Today's Extremes

Country Highs Country Lows

Community

WunderPhotos

WunderBlog® & News

Nearby

Air Quality

  Air Quality AQ Index Pollutant
Not available.

Snow Depth

Station Depth Elevation

Earthquake Activity

City Distance Mag. Time & Date
Minimum magnitude displayed is 2.5.

Coastal Water Temperatures

Place Temperature

Stations

Nearby Weather Stations

Station Location Temp. Windchill Dew Point Humidity Wind Precip. Elev Updated Type